sensor_id;sensor_type;location;lat;lon;timestamp;temperature;humidity
13944;DHT22;7044;53.286;8.534;2024-01-10T00:00:46;-4.80;99.90
13944;DHT22;7044;53.286;8.534;2024-01-10T00:03:13;-4.80;99.90
13944;DHT22;7044;53.286;8.534;2024-01-10T00:05:39;-4.70;99.90
13944;DHT22;7044;53.286;8.534;2024-01-10T00:08:08;-4.80;99.90
13944;DHT22;7044;53.286;8.534;2024-01-10T00:13:02;-4.70;99.90
13944;DHT22;7044;53.286;8.534;2024-01-10T00:15:29;-4.80;99.90
13944;DHT22;7044;53.286;8.534;2024-01-10T00:17:56;-4.80;99.90
13944;DHT22;7044;53.286;8.534;2024-01-10T00:22:50;-4.80;99.90
13944;DHT22;7044;53.286;8.534;2024-01-10T00:25:18;-5.00;99.90
13944;DHT22;7044;53.286;8.534;2024-01-10T00:27:45;-4.90;91.20
13944;DHT22;7044;53.286;8.534;2024-01-10T00:30:12;-4.90;90.50
13944;DHT22;7044;53.286;8.534;2024-01-10T00:32:39;-4.80;90.90
13944;DHT22;7044;53.286;8.534;2024-01-10T00:35:05;-4.80;92.00
13944;DHT22;7044;53.286;8.534;2024-01-10T00:37:32;-4.80;90.70
13944;DHT22;7044;53.286;8.534;2024-01-10T00:39:58;-4.90;89.50
13944;DHT22;7044;53.286;8.534;2024-01-10T00:42:27;-4.90;88.20
13944;DHT22;7044;53.286;8.534;2024-01-10T00:44:53;-5.10;89.10
13944;DHT22;7044;53.286;8.534;2024-01-10T00:47:20;-5.10;88.70
13944;DHT22;7044;53.286;8.534;2024-01-10T00:49:47;-5.00;90.40
13944;DHT22;7044;53.286;8.534;2024-01-10T00:52:14;-5.00;90.10
13944;DHT22;7044;53.286;8.534;2024-01-10T00:54:41;-5.00;90.10
13944;DHT22;7044;53.286;8.534;2024-01-10T00:57:09;-5.10;90.00
13944;DHT22;7044;53.286;8.534;2024-01-10T00:59:37;-4.50;88.10
13944;DHT22;7044;53.286;8.534;2024-01-10T01:02:04;-5.10;88.30
13944;DHT22;7044;53.286;8.534;2024-01-10T01:04:31;-5.00;89.00
13944;DHT22;7044;53.286;8.534;2024-01-10T01:06:58;-5.20;87.50
13944;DHT22;7044;53.286;8.534;2024-01-10T01:09:25;-5.10;87.80
13944;DHT22;7044;53.286;8.534;2024-01-10T01:11:52;-5.20;89.50
13944;DHT22;7044;53.286;8.534;2024-01-10T01:14:19;-5.20;88.00
13944;DHT22;7044;53.286;8.534;2024-01-10T01:16:47;-4.90;89.60
13944;DHT22;7044;53.286;8.534;2024-01-10T01:19:14;-5.10;88.30
13944;DHT22;7044;53.286;8.534;2024-01-10T01:21:41;-5.20;88.70
13944;DHT22;7044;53.286;8.534;2024-01-10T01:24:08;-5.30;85.30
13944;DHT22;7044;53.286;8.534;2024-01-10T01:26:35;-5.30;88.70
13944;DHT22;7044;53.286;8.534;2024-01-10T01:29:02;-5.30;88.80
13944;DHT22;7044;53.286;8.534;2024-01-10T01:31:29;-5.30;87.20
13944;DHT22;7044;53.286;8.534;2024-01-10T01:33:57;-5.30;89.50
13944;DHT22;7044;53.286;8.534;2024-01-10T01:36:24;-4.70;88.00
13944;DHT22;7044;53.286;8.534;2024-01-10T01:38:51;-5.50;90.00
13944;DHT22;7044;53.286;8.534;2024-01-10T01:41:18;-5.30;87.90
13944;DHT22;7044;53.286;8.534;2024-01-10T01:43:45;-5.30;90.40
13944;DHT22;7044;53.286;8.534;2024-01-10T01:48:40;-5.30;91.30
13944;DHT22;7044;53.286;8.534;2024-01-10T01:51:09;-5.20;91.70
13944;DHT22;7044;53.286;8.534;2024-01-10T01:53:38;-5.10;91.80
13944;DHT22;7044;53.286;8.534;2024-01-10T01:56:07;-5.10;90.90
13944;DHT22;7044;53.286;8.534;2024-01-10T01:58:35;-5.20;91.40
13944;DHT22;7044;53.286;8.534;2024-01-10T02:01:02;-5.30;91.30
13944;DHT22;7044;53.286;8.534;2024-01-10T02:03:31;-5.20;92.00
13944;DHT22;7044;53.286;8.534;2024-01-10T02:05:58;-5.30;91.40
13944;DHT22;7044;53.286;8.534;2024-01-10T02:08:26;-6.80;88.10
13944;DHT22;7044;53.286;8.534;2024-01-10T02:10:53;-5.30;91.10
13944;DHT22;7044;53.286;8.534;2024-01-10T02:13:20;-5.40;90.50
13944;DHT22;7044;53.286;8.534;2024-01-10T02:18:14;-4.80;92.00
13944;DHT22;7044;53.286;8.534;2024-01-10T02:20:43;-5.30;91.30
13944;DHT22;7044;53.286;8.534;2024-01-10T02:23:10;-5.40;91.30
13944;DHT22;7044;53.286;8.534;2024-01-10T02:25:39;-5.40;92.60
13944;DHT22;7044;53.286;8.534;2024-01-10T02:28:06;-5.40;92.80
13944;DHT22;7044;53.286;8.534;2024-01-10T02:30:34;-5.20;94.10
13944;DHT22;7044;53.286;8.534;2024-01-10T02:35:28;-6.40;95.50
13944;DHT22;7044;53.286;8.534;2024-01-10T02:37:58;-5.20;96.10
13944;DHT22;7044;53.286;8.534;2024-01-10T02:40:25;-5.10;98.50
13944;DHT22;7044;53.286;8.534;2024-01-10T02:42:54;-5.00;98.60
13944;DHT22;7044;53.286;8.534;2024-01-10T02:45:20;-4.90;99.50
13944;DHT22;7044;53.286;8.534;2024-01-10T02:47:47;-5.00;98.90
13944;DHT22;7044;53.286;8.534;2024-01-10T02:50:14;-4.90;99.40
13944;DHT22;7044;53.286;8.534;2024-01-10T02:52:42;-4.90;99.90
13944;DHT22;7044;53.286;8.534;2024-01-10T02:55:09;-4.90;99.90
13944;DHT22;7044;53.286;8.534;2024-01-10T02:57:35;-4.80;99.90
13944;DHT22;7044;53.286;8.534;2024-01-10T03:00:05;-4.90;99.90
13944;DHT22;7044;53.286;8.534;2024-01-10T03:02:33;-4.80;99.90
13944;DHT22;7044;53.286;8.534;2024-01-10T03:05:00;-4.80;99.90
13944;DHT22;7044;53.286;8.534;2024-01-10T03:07:27;-4.80;99.90
13944;DHT22;7044;53.286;8.534;2024-01-10T03:09:54;-4.80;99.90
13944;DHT22;7044;53.286;8.534;2024-01-10T03:14:48;-4.60;99.90
13944;DHT22;7044;53.286;8.534;2024-01-10T03:17:16;-4.70;99.90
13944;DHT22;7044;53.286;8.534;2024-01-10T03:19:43;-4.80;99.90
13944;DHT22;7044;53.286;8.534;2024-01-10T03:22:10;-5.20;99.90
13944;DHT22;7044;53.286;8.534;2024-01-10T03:24:37;-4.80;99.90
13944;DHT22;7044;53.286;8.534;2024-01-10T03:27:04;-4.80;99.90
13944;DHT22;7044;53.286;8.534;2024-01-10T03:29:31;-4.80;99.90
13944;DHT22;7044;53.286;8.534;2024-01-10T03:31:58;-4.70;99.90
13944;DHT22;7044;53.286;8.534;2024-01-10T03:34:26;-4.70;99.90
13944;DHT22;7044;53.286;8.534;2024-01-10T03:41:47;-5.40;99.90
13944;DHT22;7044;53.286;8.534;2024-01-10T03:44:14;-4.90;99.90
13944;DHT22;7044;53.286;8.534;2024-01-10T03:46:40;-4.90;99.90
13944;DHT22;7044;53.286;8.534;2024-01-10T03:49:07;-4.90;99.90
13944;DHT22;7044;53.286;8.534;2024-01-10T03:51:35;-4.80;99.90
13944;DHT22;7044;53.286;8.534;2024-01-10T03:54:03;-4.90;99.90
13944;DHT22;7044;53.286;8.534;2024-01-10T03:56:30;-5.00;99.90
13944;DHT22;7044;53.286;8.534;2024-01-10T03:58:57;-4.80;99.90
13944;DHT22;7044;53.286;8.534;2024-01-10T04:01:24;-4.80;99.90
13944;DHT22;7044;53.286;8.534;2024-01-10T04:03:51;-4.80;99.90
13944;DHT22;7044;53.286;8.534;2024-01-10T04:06:18;-4.80;99.90
13944;DHT22;7044;53.286;8.534;2024-01-10T04:08:46;-4.70;99.90
13944;DHT22;7044;53.286;8.534;2024-01-10T04:11:13;-4.60;99.90
13944;DHT22;7044;53.286;8.534;2024-01-10T04:13:40;-4.70;99.90
13944;DHT22;7044;53.286;8.534;2024-01-10T04:16:07;-4.70;99.90
13944;DHT22;7044;53.286;8.534;2024-01-10T04:18:34;-5.10;99.90
13944;DHT22;7044;53.286;8.534;2024-01-10T04:21:01;-4.80;99.90
13944;DHT22;7044;53.286;8.534;2024-01-10T04:23:28;-4.80;99.90
13944;DHT22;7044;53.286;8.534;2024-01-10T04:25:57;-4.90;99.90
13944;DHT22;7044;53.286;8.534;2024-01-10T04:28:24;-4.90;99.90
13944;DHT22;7044;53.286;8.534;2024-01-10T04:30:51;-4.80;98.40
13944;DHT22;7044;53.286;8.534;2024-01-10T04:33:18;-4.80;98.40
13944;DHT22;7044;53.286;8.534;2024-01-10T04:35:45;-5.00;98.40
13944;DHT22;7044;53.286;8.534;2024-01-10T04:38:12;-5.00;99.90
13944;DHT22;7044;53.286;8.534;2024-01-10T04:40:39;-4.90;97.40
13944;DHT22;7044;53.286;8.534;2024-01-10T04:43:07;-5.00;97.20
13944;DHT22;7044;53.286;8.534;2024-01-10T04:48:01;-4.90;99.60
13944;DHT22;7044;53.286;8.534;2024-01-10T04:50:28;-5.00;97.60
13944;DHT22;7044;53.286;8.534;2024-01-10T04:52:55;-5.00;99.90
13944;DHT22;7044;53.286;8.534;2024-01-10T04:55:21;-4.90;99.90
13944;DHT22;7044;53.286;8.534;2024-01-10T04:57:48;-4.80;99.90
13944;DHT22;7044;53.286;8.534;2024-01-10T05:00:16;-4.90;99.90
13944;DHT22;7044;53.286;8.534;2024-01-10T05:02:43;-4.60;99.90
13944;DHT22;7044;53.286;8.534;2024-01-10T05:05:10;-4.90;99.90
13944;DHT22;7044;53.286;8.534;2024-01-10T05:07:37;-4.90;99.90
13944;DHT22;7044;53.286;8.534;2024-01-10T05:10:04;-4.80;99.90
13944;DHT22;7044;53.286;8.534;2024-01-10T05:12:31;-5.80;99.90
13944;DHT22;7044;53.286;8.534;2024-01-10T05:14:58;-4.90;99.90
13944;DHT22;7044;53.286;8.534;2024-01-10T05:17:27;-4.80;99.90
13944;DHT22;7044;53.286;8.534;2024-01-10T05:19:53;-4.70;99.90
13944;DHT22;7044;53.286;8.534;2024-01-10T05:22:20;-4.80;99.90
13944;DHT22;7044;53.286;8.534;2024-01-10T05:24:47;-4.80;99.40
13944;DHT22;7044;53.286;8.534;2024-01-10T05:27:14;-4.90;99.90
13944;DHT22;7044;53.286;8.534;2024-01-10T05:29:41;-4.80;99.90
13944;DHT22;7044;53.286;8.534;2024-01-10T05:32:08;-4.80;99.90
13944;DHT22;7044;53.286;8.534;2024-01-10T05:34:37;-4.70;99.90
13944;DHT22;7044;53.286;8.534;2024-01-10T05:37:04;-5.20;99.90
13944;DHT22;7044;53.286;8.534;2024-01-10T05:39:30;-4.70;99.90
13944;DHT22;7044;53.286;8.534;2024-01-10T05:41:57;-4.70;99.90
13944;DHT22;7044;53.286;8.534;2024-01-10T05:44:24;-4.80;99.90
13944;DHT22;7044;53.286;8.534;2024-01-10T05:46:51;-4.80;99.90
13944;DHT22;7044;53.286;8.534;2024-01-10T05:49:18;-4.90;99.90
13944;DHT22;7044;53.286;8.534;2024-01-10T05:51:46;-4.90;99.90
13944;DHT22;7044;53.286;8.534;2024-01-10T05:54:13;-4.90;99.90
13944;DHT22;7044;53.286;8.534;2024-01-10T05:56:41;-4.80;99.90
13944;DHT22;7044;53.286;8.534;2024-01-10T05:59:08;-4.80;99.90
13944;DHT22;7044;53.286;8.534;2024-01-10T06:01:36;-4.80;99.90
13944;DHT22;7044;53.286;8.534;2024-01-10T06:04:04;-4.80;99.90
13944;DHT22;7044;53.286;8.534;2024-01-10T06:06:31;-4.70;99.90
13944;DHT22;7044;53.286;8.534;2024-01-10T06:09:00;-4.80;99.90
13944;DHT22;7044;53.286;8.534;2024-01-10T06:11:28;-4.70;99.90
13944;DHT22;7044;53.286;8.534;2024-01-10T06:13:55;-4.60;99.90
13944;DHT22;7044;53.286;8.534;2024-01-10T06:18:51;-4.80;99.90
13944;DHT22;7044;53.286;8.534;2024-01-10T06:21:18;-4.00;99.90
13944;DHT22;7044;53.286;8.534;2024-01-10T06:23:44;-4.70;99.90
13944;DHT22;7044;53.286;8.534;2024-01-10T06:26:13;-4.70;99.90
13944;DHT22;7044;53.286;8.534;2024-01-10T06:28:40;-4.80;99.90
13944;DHT22;7044;53.286;8.534;2024-01-10T06:31:08;-4.80;99.90
13944;DHT22;7044;53.286;8.534;2024-01-10T06:33:35;-4.80;99.90
13944;DHT22;7044;53.286;8.534;2024-01-10T06:36:02;-4.70;99.90
13944;DHT22;7044;53.286;8.534;2024-01-10T06:38:28;-4.80;99.90
13944;DHT22;7044;53.286;8.534;2024-01-10T06:40:56;-4.70;99.90
13944;DHT22;7044;53.286;8.534;2024-01-10T06:43:24;-4.70;99.90
13944;DHT22;7044;53.286;8.534;2024-01-10T06:45:51;-5.40;99.90
13944;DHT22;7044;53.286;8.534;2024-01-10T06:48:18;-4.70;99.90
13944;DHT22;7044;53.286;8.534;2024-01-10T06:53:12;-5.00;99.90
13944;DHT22;7044;53.286;8.534;2024-01-10T06:55:39;-4.70;99.90
13944;DHT22;7044;53.286;8.534;2024-01-10T06:58:06;-4.70;99.90
13944;DHT22;7044;53.286;8.534;2024-01-10T07:00:34;-4.70;99.90
13944;DHT22;7044;53.286;8.534;2024-01-10T07:03:04;-4.70;99.90
13944;DHT22;7044;53.286;8.534;2024-01-10T07:05:31;-3.60;99.90
13944;DHT22;7044;53.286;8.534;2024-01-10T07:07:58;-4.70;99.90
13944;DHT22;7044;53.286;8.534;2024-01-10T07:10:25;-4.70;99.90
13944;DHT22;7044;53.286;8.534;2024-01-10T07:12:53;-6.40;99.90
13944;DHT22;7044;53.286;8.534;2024-01-10T07:15:20;-4.70;99.90
13944;DHT22;7044;53.286;8.534;2024-01-10T07:17:48;-3.90;99.90
13944;DHT22;7044;53.286;8.534;2024-01-10T07:20:15;-4.60;99.90
13944;DHT22;7044;53.286;8.534;2024-01-10T07:22:42;-4.70;99.90
13944;DHT22;7044;53.286;8.534;2024-01-10T07:25:09;-5.30;99.90
13944;DHT22;7044;53.286;8.534;2024-01-10T07:27:39;-4.70;99.90
13944;DHT22;7044;53.286;8.534;2024-01-10T07:30:07;-4.70;99.90
13944;DHT22;7044;53.286;8.534;2024-01-10T07:32:39;-4.70;99.90
13944;DHT22;7044;53.286;8.534;2024-01-10T07:35:08;-4.70;99.90
13944;DHT22;7044;53.286;8.534;2024-01-10T07:37:36;-4.70;99.90
13944;DHT22;7044;53.286;8.534;2024-01-10T07:40:04;-4.60;99.90
13944;DHT22;7044;53.286;8.534;2024-01-10T07:42:31;-4.60;99.90
13944;DHT22;7044;53.286;8.534;2024-01-10T07:44:58;-4.60;99.90
13944;DHT22;7044;53.286;8.534;2024-01-10T07:47:25;-4.60;99.90
13944;DHT22;7044;53.286;8.534;2024-01-10T07:49:52;-4.70;99.90
13944;DHT22;7044;53.286;8.534;2024-01-10T07:52:20;-4.70;99.90
13944;DHT22;7044;53.286;8.534;2024-01-10T07:57:14;-4.60;99.90
13944;DHT22;7044;53.286;8.534;2024-01-10T07:59:43;-4.60;99.90
13944;DHT22;7044;53.286;8.534;2024-01-10T08:02:10;-4.60;99.90
13944;DHT22;7044;53.286;8.534;2024-01-10T08:04:38;-4.60;99.90
13944;DHT22;7044;53.286;8.534;2024-01-10T08:07:05;-4.50;99.90
13944;DHT22;7044;53.286;8.534;2024-01-10T08:09:32;-4.60;99.90
13944;DHT22;7044;53.286;8.534;2024-01-10T08:11:59;-4.60;99.90
13944;DHT22;7044;53.286;8.534;2024-01-10T08:14:26;-5.40;99.90
13944;DHT22;7044;53.286;8.534;2024-01-10T08:16:53;-4.40;99.90
13944;DHT22;7044;53.286;8.534;2024-01-10T08:19:20;-4.50;99.90
13944;DHT22;7044;53.286;8.534;2024-01-10T08:21:47;-4.40;99.90
13944;DHT22;7044;53.286;8.534;2024-01-10T08:24:14;-4.40;99.90
13944;DHT22;7044;53.286;8.534;2024-01-10T08:26:42;-4.40;99.90
13944;DHT22;7044;53.286;8.534;2024-01-10T08:29:09;-4.20;99.90
13944;DHT22;7044;53.286;8.534;2024-01-10T08:31:36;-3.60;99.90
13944;DHT22;7044;53.286;8.534;2024-01-10T08:34:04;-4.50;99.90
13944;DHT22;7044;53.286;8.534;2024-01-10T08:36:31;-4.20;99.90
13944;DHT22;7044;53.286;8.534;2024-01-10T08:38:58;-4.20;99.90
13944;DHT22;7044;53.286;8.534;2024-01-10T08:41:26;-5.00;99.90
13944;DHT22;7044;53.286;8.534;2024-01-10T08:43:54;-4.10;99.90
13944;DHT22;7044;53.286;8.534;2024-01-10T08:46:21;-3.90;99.90
13944;DHT22;7044;53.286;8.534;2024-01-10T08:48:48;-4.20;99.90
13944;DHT22;7044;53.286;8.534;2024-01-10T08:51:14;-4.10;99.90
13944;DHT22;7044;53.286;8.534;2024-01-10T08:53:42;-3.30;99.90
13944;DHT22;7044;53.286;8.534;2024-01-10T08:56:09;-4.50;99.90
13944;DHT22;7044;53.286;8.534;2024-01-10T08:58:36;-4.10;99.90
13944;DHT22;7044;53.286;8.534;2024-01-10T09:01:05;-4.10;99.90
13944;DHT22;7044;53.286;8.534;2024-01-10T09:03:33;-4.10;99.90
13944;DHT22;7044;53.286;8.534;2024-01-10T09:06:00;-3.70;99.90
13944;DHT22;7044;53.286;8.534;2024-01-10T09:08:29;-4.00;99.90
13944;DHT22;7044;53.286;8.534;2024-01-10T09:10:56;-3.90;99.90
13944;DHT22;7044;53.286;8.534;2024-01-10T09:13:23;-4.00;99.90
13944;DHT22;7044;53.286;8.534;2024-01-10T09:15:50;-4.00;99.90
13944;DHT22;7044;53.286;8.534;2024-01-10T09:18:18;-4.00;99.90
13944;DHT22;7044;53.286;8.534;2024-01-10T09:20:45;-3.90;99.90
13944;DHT22;7044;53.286;8.534;2024-01-10T09:23:13;-3.80;99.90
13944;DHT22;7044;53.286;8.534;2024-01-10T09:25:41;-3.80;99.90
13944;DHT22;7044;53.286;8.534;2024-01-10T09:28:08;-3.80;99.90
13944;DHT22;7044;53.286;8.534;2024-01-10T09:30:35;-4.60;99.90
13944;DHT22;7044;53.286;8.534;2024-01-10T09:33:03;-3.70;99.90
13944;DHT22;7044;53.286;8.534;2024-01-10T09:35:31;-3.70;99.90
13944;DHT22;7044;53.286;8.534;2024-01-10T09:37:58;-3.60;99.90
13944;DHT22;7044;53.286;8.534;2024-01-10T09:40:26;-3.70;99.90
13944;DHT22;7044;53.286;8.534;2024-01-10T09:42:55;-3.70;99.90
13944;DHT22;7044;53.286;8.534;2024-01-10T09:45:22;-3.70;99.90
13944;DHT22;7044;53.286;8.534;2024-01-10T09:47:54;-3.60;99.90
13944;DHT22;7044;53.286;8.534;2024-01-10T09:50:22;-3.50;99.90
13944;DHT22;7044;53.286;8.534;2024-01-10T09:52:53;-3.60;99.90
13944;DHT22;7044;53.286;8.534;2024-01-10T09:55:22;-3.60;99.90
13944;DHT22;7044;53.286;8.534;2024-01-10T09:57:49;-3.50;99.90
13944;DHT22;7044;53.286;8.534;2024-01-10T10:00:17;-3.50;99.90
13944;DHT22;7044;53.286;8.534;2024-01-10T10:02:46;-3.50;99.90
13944;DHT22;7044;53.286;8.534;2024-01-10T10:05:14;-3.40;99.90
13944;DHT22;7044;53.286;8.534;2024-01-10T10:07:45;-3.50;99.90
13944;DHT22;7044;53.286;8.534;2024-01-10T10:10:14;-5.00;99.90
13944;DHT22;7044;53.286;8.534;2024-01-10T10:12:42;-3.50;99.90
13944;DHT22;7044;53.286;8.534;2024-01-10T10:15:11;-3.40;99.90
13944;DHT22;7044;53.286;8.534;2024-01-10T10:17:39;-3.50;99.90
13944;DHT22;7044;53.286;8.534;2024-01-10T10:20:13;-3.30;99.90
13944;DHT22;7044;53.286;8.534;2024-01-10T10:22:44;-3.40;99.90
13944;DHT22;7044;53.286;8.534;2024-01-10T10:25:27;-3.10;99.90
13944;DHT22;7044;53.286;8.534;2024-01-10T10:27:55;-3.30;99.90
13944;DHT22;7044;53.286;8.534;2024-01-10T10:30:22;-3.10;99.90
13944;DHT22;7044;53.286;8.534;2024-01-10T10:32:49;-3.20;99.90
13944;DHT22;7044;53.286;8.534;2024-01-10T10:35:15;-3.20;99.90
13944;DHT22;7044;53.286;8.534;2024-01-10T10:37:42;-3.20;99.90
13944;DHT22;7044;53.286;8.534;2024-01-10T10:40:10;-3.20;99.90
13944;DHT22;7044;53.286;8.534;2024-01-10T10:42:44;-3.10;99.90
13944;DHT22;7044;53.286;8.534;2024-01-10T10:45:14;-3.00;99.90
13944;DHT22;7044;53.286;8.534;2024-01-10T10:47:44;-3.00;99.90
13944;DHT22;7044;53.286;8.534;2024-01-10T10:50:13;-2.80;99.90
13944;DHT22;7044;53.286;8.534;2024-01-10T10:52:44;-2.90;99.90
13944;DHT22;7044;53.286;8.534;2024-01-10T10:55:14;-2.70;99.90
13944;DHT22;7044;53.286;8.534;2024-01-10T10:57:44;-2.80;99.90
13944;DHT22;7044;53.286;8.534;2024-01-10T11:00:13;-2.80;99.90
13944;DHT22;7044;53.286;8.534;2024-01-10T11:02:42;-2.80;99.90
13944;DHT22;7044;53.286;8.534;2024-01-10T11:05:10;-2.80;99.90
13944;DHT22;7044;53.286;8.534;2024-01-10T11:07:37;-2.70;99.90
13944;DHT22;7044;53.286;8.534;2024-01-10T11:10:08;-3.80;99.90
13944;DHT22;7044;53.286;8.534;2024-01-10T11:12:53;-2.80;99.90
13944;DHT22;7044;53.286;8.534;2024-01-10T11:15:46;-2.70;99.90
13944;DHT22;7044;53.286;8.534;2024-01-10T11:18:42;-2.70;99.90
13944;DHT22;7044;53.286;8.534;2024-01-10T11:21:19;-2.60;99.90
13944;DHT22;7044;53.286;8.534;2024-01-10T11:23:53;-2.50;99.90
13944;DHT22;7044;53.286;8.534;2024-01-10T11:26:21;-2.40;99.90
13944;DHT22;7044;53.286;8.534;2024-01-10T11:28:50;-2.80;99.90
13944;DHT22;7044;53.286;8.534;2024-01-10T11:31:27;-2.40;99.90
13944;DHT22;7044;53.286;8.534;2024-01-10T11:33:56;-2.50;99.90
13944;DHT22;7044;53.286;8.534;2024-01-10T11:36:23;-2.50;99.90
13944;DHT22;7044;53.286;8.534;2024-01-10T11:38:55;-2.30;99.90
13944;DHT22;7044;53.286;8.534;2024-01-10T11:41:27;-2.40;99.90
13944;DHT22;7044;53.286;8.534;2024-01-10T11:46:59;-2.20;99.90
13944;DHT22;7044;53.286;8.534;2024-01-10T11:49:26;-2.20;99.90
13944;DHT22;7044;53.286;8.534;2024-01-10T11:51:55;-2.10;99.90
13944;DHT22;7044;53.286;8.534;2024-01-10T11:54:39;-2.30;99.90
13944;DHT22;7044;53.286;8.534;2024-01-10T11:57:18;-2.20;99.90
13944;DHT22;7044;53.286;8.534;2024-01-10T11:59:45;-1.90;99.90
13944;DHT22;7044;53.286;8.534;2024-01-10T12:02:14;-2.30;99.90
13944;DHT22;7044;53.286;8.534;2024-01-10T12:04:40;-2.30;99.90
13944;DHT22;7044;53.286;8.534;2024-01-10T12:07:08;-2.90;99.90
13944;DHT22;7044;53.286;8.534;2024-01-10T12:09:35;-3.90;99.90
13944;DHT22;7044;53.286;8.534;2024-01-10T12:12:03;-2.20;99.90
13944;DHT22;7044;53.286;8.534;2024-01-10T12:14:30;-2.10;99.90
13944;DHT22;7044;53.286;8.534;2024-01-10T12:16:58;-2.10;99.90
13944;DHT22;7044;53.286;8.534;2024-01-10T12:19:27;-2.10;99.90
13944;DHT22;7044;53.286;8.534;2024-01-10T12:21:54;-2.10;99.90
13944;DHT22;7044;53.286;8.534;2024-01-10T12:24:21;-1.90;99.90
13944;DHT22;7044;53.286;8.534;2024-01-10T12:26:49;-1.50;99.90
13944;DHT22;7044;53.286;8.534;2024-01-10T12:29:17;-2.00;99.90
13944;DHT22;7044;53.286;8.534;2024-01-10T12:31:45;-2.00;99.90
13944;DHT22;7044;53.286;8.534;2024-01-10T12:34:12;-2.10;99.90
13944;DHT22;7044;53.286;8.534;2024-01-10T12:36:41;-2.00;99.90
13944;DHT22;7044;53.286;8.534;2024-01-10T12:39:08;-1.90;99.90
13944;DHT22;7044;53.286;8.534;2024-01-10T12:41:35;-2.00;99.90
13944;DHT22;7044;53.286;8.534;2024-01-10T12:44:04;-2.10;99.90
13944;DHT22;7044;53.286;8.534;2024-01-10T12:46:31;-1.90;99.90
13944;DHT22;7044;53.286;8.534;2024-01-10T12:48:59;-1.80;99.90
13944;DHT22;7044;53.286;8.534;2024-01-10T12:51:27;-1.80;99.90
13944;DHT22;7044;53.286;8.534;2024-01-10T12:53:56;-1.80;99.90
13944;DHT22;7044;53.286;8.534;2024-01-10T12:56:24;-1.80;99.90
13944;DHT22;7044;53.286;8.534;2024-01-10T12:58:51;-1.80;99.90
13944;DHT22;7044;53.286;8.534;2024-01-10T13:01:20;-2.00;99.90
13944;DHT22;7044;53.286;8.534;2024-01-10T13:03:47;-1.80;99.90
13944;DHT22;7044;53.286;8.534;2024-01-10T13:06:14;-1.80;99.90
13944;DHT22;7044;53.286;8.534;2024-01-10T13:08:42;-1.80;99.90
13944;DHT22;7044;53.286;8.534;2024-01-10T13:11:10;-1.70;99.90
13944;DHT22;7044;53.286;8.534;2024-01-10T13:13:39;-1.70;99.90
13944;DHT22;7044;53.286;8.534;2024-01-10T13:16:07;-1.20;99.90
13944;DHT22;7044;53.286;8.534;2024-01-10T13:18:36;-1.70;99.90
13944;DHT22;7044;53.286;8.534;2024-01-10T13:21:03;-1.70;99.90
13944;DHT22;7044;53.286;8.534;2024-01-10T13:23:30;-1.70;99.90
13944;DHT22;7044;53.286;8.534;2024-01-10T13:25:59;-1.70;99.90
13944;DHT22;7044;53.286;8.534;2024-01-10T13:28:27;-1.70;99.90
13944;DHT22;7044;53.286;8.534;2024-01-10T13:30:55;-1.60;99.90
13944;DHT22;7044;53.286;8.534;2024-01-10T13:33:22;-1.60;99.90
13944;DHT22;7044;53.286;8.534;2024-01-10T13:35:51;-1.60;99.90
13944;DHT22;7044;53.286;8.534;2024-01-10T13:38:18;-1.60;99.90
13944;DHT22;7044;53.286;8.534;2024-01-10T13:40:44;-1.60;99.90
13944;DHT22;7044;53.286;8.534;2024-01-10T13:43:11;-1.00;99.90
13944;DHT22;7044;53.286;8.534;2024-01-10T13:45:40;-1.50;99.90
13944;DHT22;7044;53.286;8.534;2024-01-10T13:48:07;-1.60;99.90
13944;DHT22;7044;53.286;8.534;2024-01-10T13:50:35;-1.60;99.90
13944;DHT22;7044;53.286;8.534;2024-01-10T13:53:02;-1.50;99.90
13944;DHT22;7044;53.286;8.534;2024-01-10T13:55:30;-1.60;99.90
13944;DHT22;7044;53.286;8.534;2024-01-10T13:57:57;-1.60;99.90
13944;DHT22;7044;53.286;8.534;2024-01-10T14:00:24;-1.60;99.90
13944;DHT22;7044;53.286;8.534;2024-01-10T14:02:53;-1.60;99.90
13944;DHT22;7044;53.286;8.534;2024-01-10T14:05:25;-1.70;99.90
13944;DHT22;7044;53.286;8.534;2024-01-10T14:07:52;-1.60;99.90
13944;DHT22;7044;53.286;8.534;2024-01-10T14:10:19;-1.70;99.90
13944;DHT22;7044;53.286;8.534;2024-01-10T14:12:47;-1.70;99.90
13944;DHT22;7044;53.286;8.534;2024-01-10T14:15:14;-1.70;99.90
13944;DHT22;7044;53.286;8.534;2024-01-10T14:17:41;-2.50;99.90
13944;DHT22;7044;53.286;8.534;2024-01-10T14:20:10;-1.80;99.90
13944;DHT22;7044;53.286;8.534;2024-01-10T14:22:39;-1.80;99.90
13944;DHT22;7044;53.286;8.534;2024-01-10T14:25:07;-1.80;99.90
13944;DHT22;7044;53.286;8.534;2024-01-10T14:27:35;-1.80;99.90
13944;DHT22;7044;53.286;8.534;2024-01-10T14:30:05;-1.80;99.90
13944;DHT22;7044;53.286;8.534;2024-01-10T14:32:34;-1.80;99.90
13944;DHT22;7044;53.286;8.534;2024-01-10T14:35:01;-1.80;99.90
13944;DHT22;7044;53.286;8.534;2024-01-10T14:37:29;-1.90;99.90
13944;DHT22;7044;53.286;8.534;2024-01-10T14:39:56;-1.90;99.90
13944;DHT22;7044;53.286;8.534;2024-01-10T14:42:23;-1.80;99.90
13944;DHT22;7044;53.286;8.534;2024-01-10T14:44:50;-2.40;99.90
13944;DHT22;7044;53.286;8.534;2024-01-10T14:47:17;-1.20;99.90
13944;DHT22;7044;53.286;8.534;2024-01-10T14:49:44;-2.00;99.90
13944;DHT22;7044;53.286;8.534;2024-01-10T14:52:11;-2.00;99.90
13944;DHT22;7044;53.286;8.534;2024-01-10T14:54:39;-2.00;99.90
13944;DHT22;7044;53.286;8.534;2024-01-10T14:57:06;-2.00;99.90
13944;DHT22;7044;53.286;8.534;2024-01-10T14:59:34;-2.00;99.90
13944;DHT22;7044;53.286;8.534;2024-01-10T15:02:03;-2.10;99.90
13944;DHT22;7044;53.286;8.534;2024-01-10T15:04:32;-2.10;99.90
13944;DHT22;7044;53.286;8.534;2024-01-10T15:07:03;-2.20;99.90
13944;DHT22;7044;53.286;8.534;2024-01-10T15:09:30;-2.10;99.90
13944;DHT22;7044;53.286;8.534;2024-01-10T15:11:58;-2.20;99.90
13944;DHT22;7044;53.286;8.534;2024-01-10T15:14:25;-2.30;99.90
13944;DHT22;7044;53.286;8.534;2024-01-10T15:16:51;-2.30;99.90
13944;DHT22;7044;53.286;8.534;2024-01-10T15:19:19;-2.30;99.90
13944;DHT22;7044;53.286;8.534;2024-01-10T15:21:45;-2.30;99.90
13944;DHT22;7044;53.286;8.534;2024-01-10T15:24:13;-2.30;99.90
13944;DHT22;7044;53.286;8.534;2024-01-10T15:26:39;-2.40;99.90
13944;DHT22;7044;53.286;8.534;2024-01-10T15:29:08;-2.50;99.90
13944;DHT22;7044;53.286;8.534;2024-01-10T15:31:35;-2.50;99.90
13944;DHT22;7044;53.286;8.534;2024-01-10T15:34:02;-2.10;99.90
13944;DHT22;7044;53.286;8.534;2024-01-10T15:36:29;-2.50;99.90
13944;DHT22;7044;53.286;8.534;2024-01-10T15:38:56;-2.60;99.90
13944;DHT22;7044;53.286;8.534;2024-01-10T15:41:23;-2.60;99.90
13944;DHT22;7044;53.286;8.534;2024-01-10T15:43:50;-2.70;99.90
13944;DHT22;7044;53.286;8.534;2024-01-10T15:46:21;-2.80;99.90
13944;DHT22;7044;53.286;8.534;2024-01-10T15:48:48;-2.70;99.90
13944;DHT22;7044;53.286;8.534;2024-01-10T15:51:14;-2.70;99.90
13944;DHT22;7044;53.286;8.534;2024-01-10T15:53:41;-2.80;99.90
13944;DHT22;7044;53.286;8.534;2024-01-10T15:56:10;-2.70;99.90
13944;DHT22;7044;53.286;8.534;2024-01-10T15:58:37;-2.80;99.90
13944;DHT22;7044;53.286;8.534;2024-01-10T16:01:05;-2.80;99.90
13944;DHT22;7044;53.286;8.534;2024-01-10T16:03:34;-2.80;99.90
13944;DHT22;7044;53.286;8.534;2024-01-10T16:06:01;-2.80;99.90
13944;DHT22;7044;53.286;8.534;2024-01-10T16:08:28;-2.80;99.90
13944;DHT22;7044;53.286;8.534;2024-01-10T16:10:55;-2.90;99.90
13944;DHT22;7044;53.286;8.534;2024-01-10T16:13:22;-2.90;99.90
13944;DHT22;7044;53.286;8.534;2024-01-10T16:15:53;-2.90;99.90
13944;DHT22;7044;53.286;8.534;2024-01-10T16:18:21;-3.00;99.90
13944;DHT22;7044;53.286;8.534;2024-01-10T16:20:49;-3.00;99.90